Portada
METAR-TAF:

METAR-TAF

Aeroports :

Touho, Nova Caledònia

latitud: 20-47-25S, longitud: 165-15-34E, altitud: 3 m

METAR: manca

Hora: 23:30 (12:30 UTC)

Pronòstic

L'informe es va fer fa 19 hores i 30 minuts, a les 17:00 UTC
Pronòstic vàlid del 01 a les 18 UTC al 02 a les 18 UTC
Vent 2 kt amb direcció variable
Visibilitat 10 km o més
Núvols disperses a una alçada de 3000 ft
Núvols disperses a una alçada de 5000 ft
Probabilitat 30% :
Temporalment
l' 02 a les 00 UTC al 02 a les 06 UTC
Cel ennuvolat a una alçada de 1200 ft
xàfecs de pluja

TAF: NWWU 011700Z 0118/0218 VRB02KT 9999 SCT030 SCT050 PROB30 TEMPO 0200/0206 SHRA BKN012

Observacions i pronòstics meteorològics de més de 4000 aeroports (METAR i TAF).

Les estacions disponibles són els punts grocs i vermells al mapa.

Posi el ratolí al punt desitjat per veure el nom de l'estació.

Feu clic per veure les observacions i els pronòstics meteorològics.

Per canviar el mapa: feu clic els botons verds amb una creu de color negre per apropar; al botó verd amb un guió per allunyar la imatge; o en les fletxes verdes per a mapes adjacents.


METAR-TAF: